Time;durP1;ratioP1;P1;durP2;ratioP2;P2;SDS_P1;SDS_P2;PMS_P1;PMS_P2;Temp;Humidity;BMP_temperature;BMP_pressure;BME280_temperature;BME280_humidity;BME280_pressure;Samples;Min_cycle;Max_cycle;Signal;HPM_P1;HPM_P2
2023/01/09 00:01:54;;;;;;;15.93;11.00;;;5.00;99.90;;;;;;5241185;28;20442;-49
2023/01/09 00:04:25;;;;;;;16.80;11.30;;;4.90;99.90;;;;;;5251664;28;20184;-51
2023/01/09 00:06:56;;;;;;;20.00;10.40;;;4.90;99.90;;;;;;5256941;28;20216;-52
2023/01/09 00:09:26;;;;;;;18.20;10.30;;;4.90;99.90;;;;;;5259180;28;20636;-50
2023/01/09 00:11:57;;;;;;;16.70;11.30;;;4.90;99.90;;;;;;5241551;28;20652;-49
2023/01/09 00:14:28;;;;;;;14.40;9.27;;;4.90;99.90;;;;;;5240722;28;20188;-51
2023/01/09 00:16:58;;;;;;;12.00;9.60;;;4.80;99.90;;;;;;5245047;28;20192;-51
2023/01/09 00:19:29;;;;;;;15.67;10.30;;;4.80;99.90;;;;;;5260315;28;20267;-51
2023/01/09 00:22:00;;;;;;;15.10;11.00;;;4.80;99.90;;;;;;5256806;28;20180;-50
2023/01/09 00:24:31;;;;;;;13.43;9.83;;;4.80;99.90;;;;;;5259031;28;20198;-51
2023/01/09 00:27:02;;;;;;;12.80;10.43;;;4.80;99.90;;;;;;5242517;28;20435;-50
2023/01/09 00:29:33;;;;;;;15.27;9.80;;;4.80;99.90;;;;;;5259329;28;20401;-52
2023/01/09 00:32:08;;;;;;;20.90;10.83;;;4.80;99.90;;;;;;5256734;28;20199;-51
2023/01/09 00:34:41;;;;;;;15.00;10.13;;;4.80;99.90;;;;;;5260622;28;20184;-52
2023/01/09 00:37:12;;;;;;;20.70;12.70;;;4.80;99.90;;;;;;5232908;28;20476;-51
2023/01/09 00:39:43;;;;;;;13.07;11.03;;;4.70;99.90;;;;;;5256808;28;20552;-51
2023/01/09 00:42:19;;;;;;;16.27;10.97;;;4.70;99.90;;;;;;5216045;28;20657;-51
2023/01/09 00:44:57;;;;;;;20.83;11.37;;;4.80;99.90;;;;;;5243819;28;20270;-51
2023/01/09 00:47:37;;;;;;;15.40;11.13;;;4.70;99.90;;;;;;5251461;28;20788;-51
2023/01/09 00:50:14;;;;;;;14.80;11.27;;;4.70;99.90;;;;;;5247853;28;20809;-51
2023/01/09 00:52:47;;;;;;;17.67;10.87;;;4.80;99.90;;;;;;5247467;28;20948;-51
2023/01/09 00:55:18;;;;;;;12.67;10.07;;;4.70;99.90;;;;;;5250697;28;20447;-50
2023/01/09 00:57:48;;;;;;;13.43;10.77;;;4.70;99.90;;;;;;5252600;28;20480;-50
2023/01/09 01:00:19;;;;;;;16.00;11.20;;;4.70;99.90;;;;;;5255560;28;20559;-52
2023/01/09 01:02:50;;;;;;;18.00;11.73;;;4.70;99.90;;;;;;5254199;28;20179;-51
2023/01/09 01:08:15;;;;;;;11.27;9.80;;;4.70;99.90;;;;;;5261953;28;20277;-50
2023/01/09 01:10:47;;;;;;;17.63;13.03;;;4.60;99.90;;;;;;5243325;28;20443;-52
2023/01/09 01:13:18;;;;;;;16.83;11.80;;;4.60;99.90;;;;;;5245722;28;20566;-51
2023/01/09 01:15:49;;;;;;;18.33;12.10;;;4.60;99.90;;;;;;5235161;28;20535;-52
2023/01/09 01:18:19;;;;;;;19.23;11.63;;;4.50;99.90;;;;;;5244876;28;20221;-51
2023/01/09 01:20:50;;;;;;;15.97;12.27;;;4.50;99.90;;;;;;5258388;28;20238;-51
2023/01/09 01:23:21;;;;;;;17.57;11.90;;;4.50;99.90;;;;;;5255105;28;20191;-51
2023/01/09 01:25:52;;;;;;;19.20;11.60;;;4.50;99.90;;;;;;5240187;28;20192;-51
2023/01/09 01:28:23;;;;;;;19.13;12.93;;;4.50;99.90;;;;;;5263001;28;20199;-51
2023/01/09 01:30:53;;;;;;;20.60;12.40;;;4.60;99.90;;;;;;5261550;28;20443;-50
2023/01/09 01:33:24;;;;;;;24.07;13.20;;;4.50;99.90;;;;;;5263960;28;20595;-50
2023/01/09 01:36:08;;;;;;;18.27;12.63;;;4.40;99.90;;;;;;5258303;28;20198;-50
2023/01/09 01:38:38;;;;;;;18.90;13.60;;;4.40;99.90;;;;;;5241470;28;20302;-51
2023/01/09 01:41:09;;;;;;;19.90;13.20;;;4.40;99.90;;;;;;5255989;28;20905;-51
2023/01/09 01:44:01;;;;;;;18.50;12.80;;;4.40;99.90;;;;;;5243787;28;20179;-53
2023/01/09 01:46:33;;;;;;;16.90;12.20;;;4.40;99.90;;;;;;5258084;28;20261;-51
2023/01/09 01:49:11;;;;;;;16.83;12.73;;;4.40;99.90;;;;;;5259567;28;20444;-51
2023/01/09 01:51:45;;;;;;;18.90;12.40;;;4.30;99.90;;;;;;5224133;28;20906;-48
2023/01/09 01:54:25;;;;;;;19.47;13.07;;;4.30;99.90;;;;;;5263109;28;20421;-50
2023/01/09 01:57:00;;;;;;;21.60;14.33;;;4.20;99.90;;;;;;5236632;28;20442;-51
2023/01/09 01:59:36;;;;;;;19.23;13.20;;;4.30;99.90;;;;;;5242488;28;20526;-50
2023/01/09 02:02:09;;;;;;;17.83;12.63;;;4.20;99.90;;;;;;5261619;28;20424;-51
2023/01/09 02:04:40;;;;;;;22.87;13.63;;;4.20;99.90;;;;;;5251844;28;20442;-51
2023/01/09 02:07:10;;;;;;;24.30;15.50;;;4.30;99.90;;;;;;5237442;28;20457;-50
2023/01/09 02:09:43;;;;;;;24.20;14.50;;;4.30;99.90;;;;;;5262025;28;20206;-50
2023/01/09 02:12:22;;;;;;;27.40;16.00;;;4.20;99.90;;;;;;5239677;28;20675;-49
2023/01/09 02:15:09;;;;;;;26.73;15.70;;;4.20;99.90;;;;;;5262400;28;20445;-50
2023/01/09 02:17:52;;;;;;;21.53;14.87;;;4.20;99.90;;;;;;5235305;28;20445;-49
2023/01/09 02:20:58;;;;;;;24.50;15.67;;;4.20;99.90;;;;;;5262240;28;20461;-51
2023/01/09 02:24:00;;;;;;;23.23;15.50;;;4.20;99.90;;;;;;5263049;28;20412;-51
2023/01/09 02:26:34;;;;;;;24.10;16.10;;;4.20;99.90;;;;;;5263179;28;20397;-49
2023/01/09 02:29:32;;;;;;;23.13;14.93;;;4.20;99.90;;;;;;5260855;28;20424;-51
2023/01/09 02:32:13;;;;;;;20.67;14.57;;;4.20;99.90;;;;;;5258260;28;20424;-51
2023/01/09 02:35:09;;;;;;;22.40;15.20;;;4.20;99.90;;;;;;5258522;28;20427;-52
2023/01/09 02:37:54;;;;;;;22.67;14.97;;;4.10;99.90;;;;;;5255832;28;20421;-50
2023/01/09 02:40:51;;;;;;;25.13;16.73;;;4.10;99.90;;;;;;5245707;28;20463;-49
2023/01/09 02:43:22;;;;;;;24.00;16.50;;;4.10;99.90;;;;;;5263938;28;20932;-49
2023/01/09 02:45:53;;;;;;;22.30;14.93;;;4.10;99.90;;;;;;5257463;28;20488;-53
2023/01/09 02:48:23;;;;;;;24.07;15.47;;;4.10;99.90;;;;;;5256505;28;20964;-51
2023/01/09 02:51:13;;;;;;;24.97;16.00;;;4.10;99.90;;;;;;5237310;28;20186;-51
2023/01/09 02:53:57;;;;;;;27.57;16.20;;;4.10;99.90;;;;;;5260322;28;20183;-51
2023/01/09 02:56:40;;;;;;;22.57;15.10;;;4.20;99.90;;;;;;5242207;28;20872;-52
2023/01/09 02:59:40;;;;;;;24.73;14.70;;;4.10;99.90;;;;;;5263072;28;20451;-51
2023/01/09 03:02:33;;;;;;;24.97;15.87;;;4.20;99.90;;;;;;5258124;28;20436;-51
2023/01/09 03:05:22;;;;;;;31.40;15.60;;;4.10;99.90;;;;;;5243077;28;20493;-51
2023/01/09 03:08:10;;;;;;;26.53;16.57;;;4.10;99.90;;;;;;5253806;28;20540;-51
2023/01/09 03:11:04;;;;;;;23.13;16.30;;;4.10;99.90;;;;;;5242788;28;20460;-51
2023/01/09 03:13:52;;;;;;;22.30;14.87;;;4.00;99.90;;;;;;5245694;28;20843;-51
2023/01/09 03:16:28;;;;;;;22.10;16.83;;;4.10;99.90;;;;;;5241125;28;20508;-51
2023/01/09 03:19:01;;;;;;;20.83;15.73;;;4.00;99.90;;;;;;5249956;28;20465;-52
2023/01/09 03:21:32;;;;;;;23.27;15.10;;;4.10;99.90;;;;;;5217434;28;20485;-50
2023/01/09 03:24:03;;;;;;;25.47;17.37;;;4.00;99.90;;;;;;5257082;28;20827;-50
2023/01/09 03:26:34;;;;;;;28.87;16.03;;;4.00;99.90;;;;;;5263200;28;20416;-51
2023/01/09 03:29:05;;;;;;;23.37;16.80;;;4.00;99.90;;;;;;5225739;28;20462;-49
2023/01/09 03:31:39;;;;;;;24.40;16.07;;;4.00;99.90;;;;;;5259797;28;20432;-63
2023/01/09 03:34:10;;;;;;;25.57;15.40;;;4.10;99.90;;;;;;5236591;28;20190;-50
2023/01/09 03:36:41;;;;;;;19.70;15.00;;;4.20;99.90;;;;;;5241719;28;20446;-51
2023/01/09 03:39:11;;;;;;;22.10;15.50;;;4.30;99.90;;;;;;5249813;28;20208;-49
2023/01/09 03:41:42;;;;;;;20.50;13.57;;;4.30;99.90;;;;;;5261427;28;20176;-48
2023/01/09 03:44:12;;;;;;;22.70;14.83;;;4.40;99.90;;;;;;5243507;28;20260;-49
2023/01/09 03:46:43;;;;;;;22.33;15.10;;;4.40;99.90;;;;;;5263344;28;20240;-51
2023/01/09 03:49:14;;;;;;;19.27;14.40;;;4.50;99.90;;;;;;5240026;28;20210;-51
2023/01/09 03:51:44;;;;;;;19.43;14.77;;;4.60;99.90;;;;;;5261769;28;20193;-51
2023/01/09 03:54:15;;;;;;;22.30;14.03;;;4.70;99.90;;;;;;5244760;28;20656;-51
2023/01/09 03:56:46;;;;;;;27.30;14.10;;;4.70;99.90;;;;;;5243937;28;20295;-50
2023/01/09 03:59:16;;;;;;;19.87;14.83;;;4.80;99.90;;;;;;5261160;28;20230;-50
2023/01/09 04:01:47;;;;;;;22.83;13.07;;;4.80;99.90;;;;;;5256063;28;20550;-52
2023/01/09 04:04:17;;;;;;;22.73;14.20;;;4.90;99.90;;;;;;5243394;28;20186;-50
2023/01/09 04:06:48;;;;;;;23.70;14.20;;;4.90;99.90;;;;;;5240885;28;20262;-50
2023/01/09 04:09:19;;;;;;;19.60;13.63;;;4.90;99.90;;;;;;5260752;28;20224;-51
2023/01/09 04:11:50;;;;;;;22.17;13.13;;;5.10;99.90;;;;;;5258365;28;20206;-51
2023/01/09 04:14:20;;;;;;;15.93;12.27;;;5.10;99.90;;;;;;5261676;28;20281;-51
2023/01/09 04:16:51;;;;;;;23.43;13.47;;;5.10;99.90;;;;;;5240340;28;20271;-51
2023/01/09 04:19:22;;;;;;;20.60;13.67;;;5.10;99.90;;;;;;5246575;28;20571;-51
2023/01/09 04:21:52;;;;;;;19.90;13.73;;;5.10;99.90;;;;;;5262728;28;20683;-50
2023/01/09 04:24:23;;;;;;;20.23;13.43;;;5.10;99.90;;;;;;5263281;28;20196;-51
2023/01/09 04:26:55;;;;;;;15.20;12.07;;;5.10;99.90;;;;;;5268208;28;20189;-50
2023/01/09 04:29:25;;;;;;;26.13;14.33;;;5.10;99.90;;;;;;5262680;28;20281;-51
2023/01/09 04:31:56;;;;;;;22.47;14.00;;;5.00;99.90;;;;;;5244915;28;20449;-51
2023/01/09 04:34:27;;;;;;;19.10;14.20;;;4.90;99.90;;;;;;5262363;28;20190;-51
2023/01/09 04:36:57;;;;;;;19.10;12.60;;;5.00;99.90;;;;;;5266339;28;20527;-51
2023/01/09 04:39:28;;;;;;;20.40;14.70;;;5.10;99.90;;;;;;5257616;28;20287;-51
2023/01/09 04:41:58;;;;;;;21.30;14.60;;;5.10;99.90;;;;;;5260291;28;20176;-50
2023/01/09 04:44:29;;;;;;;21.57;15.10;;;5.00;99.90;;;;;;5235549;28;20182;-50
2023/01/09 04:47:00;;;;;;;22.80;15.33;;;5.00;99.90;;;;;;5258303;28;20209;-50
2023/01/09 04:49:30;;;;;;;20.47;14.40;;;5.00;99.90;;;;;;5257428;28;20203;-50
2023/01/09 04:52:01;;;;;;;20.87;14.47;;;5.10;99.90;;;;;;5259817;28;20224;-50
2023/01/09 04:54:33;;;;;;;20.00;13.17;;;5.00;99.90;;;;;;5240098;28;20279;-50
2023/01/09 04:57:04;;;;;;;20.70;14.20;;;5.00;99.90;;;;;;5244006;28;20188;-51
2023/01/09 04:59:34;;;;;;;22.90;15.10;;;5.10;99.90;;;;;;5256263;28;20478;-51
2023/01/09 05:02:05;;;;;;;22.97;14.30;;;5.00;99.90;;;;;;5255681;28;20510;-49
2023/01/09 05:04:36;;;;;;;21.70;14.50;;;5.10;99.90;;;;;;5241987;28;20311;-49
2023/01/09 05:07:06;;;;;;;27.87;15.23;;;5.10;99.90;;;;;;5236483;28;20185;-51
2023/01/09 05:09:37;;;;;;;26.20;13.93;;;5.00;99.90;;;;;;5257333;28;20220;-50
2023/01/09 05:12:08;;;;;;;24.33;15.40;;;5.00;99.90;;;;;;5259021;28;20191;-50
2023/01/09 05:14:38;;;;;;;20.90;14.17;;;5.00;99.90;;;;;;5254837;28;20228;-51
2023/01/09 05:17:09;;;;;;;25.50;15.00;;;5.10;99.90;;;;;;5242038;28;20218;-51
2023/01/09 05:19:40;;;;;;;24.80;15.70;;;5.10;99.90;;;;;;5240512;28;20689;-50
2023/01/09 05:22:11;;;;;;;19.43;14.43;;;5.10;99.90;;;;;;5241271;28;20271;-49
2023/01/09 05:24:42;;;;;;;24.40;15.37;;;5.10;99.90;;;;;;5232846;28;20214;-50
2023/01/09 05:27:13;;;;;;;21.57;15.30;;;5.10;99.90;;;;;;5259208;28;20838;-49
2023/01/09 05:29:43;;;;;;;18.53;13.20;;;5.10;99.90;;;;;;5239228;28;20210;-49
2023/01/09 05:32:14;;;;;;;23.00;16.30;;;5.10;99.90;;;;;;5259491;28;20193;-50
2023/01/09 05:34:44;;;;;;;28.43;17.10;;;5.20;99.90;;;;;;5251462;28;20691;-51
2023/01/09 05:37:15;;;;;;;27.30;16.30;;;5.20;99.90;;;;;;5259540;28;20180;-51
2023/01/09 05:39:46;;;;;;;29.80;17.20;;;5.20;99.90;;;;;;5255423;28;20218;-51
2023/01/09 05:42:16;;;;;;;26.13;16.80;;;5.20;99.90;;;;;;5242086;28;20191;-50
2023/01/09 05:44:47;;;;;;;23.53;16.20;;;5.20;99.90;;;;;;5263624;28;20195;-50
2023/01/09 05:47:17;;;;;;;28.50;17.23;;;5.20;99.90;;;;;;5261091;28;20191;-51
2023/01/09 05:49:48;;;;;;;30.13;19.03;;;5.20;99.90;;;;;;5260741;28;20255;-51
2023/01/09 05:52:19;;;;;;;30.30;18.03;;;5.10;99.90;;;;;;5237521;28;20235;-51
2023/01/09 05:54:50;;;;;;;33.97;20.60;;;5.10;99.90;;;;;;5236754;28;20215;-51
2023/01/09 05:57:20;;;;;;;30.83;20.43;;;5.10;99.90;;;;;;5246761;28;20244;-52
2023/01/09 05:59:51;;;;;;;38.50;21.60;;;5.10;99.90;;;;;;5245633;28;21047;-51
2023/01/09 06:02:22;;;;;;;40.57;21.73;;;5.10;99.90;;;;;;5249665;28;20248;-52
2023/01/09 06:04:52;;;;;;;44.27;25.07;;;5.10;99.90;;;;;;5246982;28;20667;-52
2023/01/09 06:07:23;;;;;;;41.37;23.73;;;5.10;99.90;;;;;;5234210;28;20184;-53
2023/01/09 06:09:54;;;;;;;48.60;23.97;;;5.00;99.90;;;;;;5230403;28;20215;-52
2023/01/09 06:12:24;;;;;;;42.90;24.90;;;5.00;99.90;;;;;;5251652;28;20189;-52
2023/01/09 06:14:55;;;;;;;52.37;28.43;;;5.00;99.90;;;;;;5233064;28;20187;-52
2023/01/09 06:17:26;;;;;;;58.17;29.90;;;5.00;99.90;;;;;;5232677;28;20199;-50
2023/01/09 06:19:56;;;;;;;46.53;25.73;;;5.00;99.90;;;;;;5248365;28;20276;-53
2023/01/09 06:22:27;;;;;;;51.30;27.50;;;5.00;99.90;;;;;;5250599;28;20192;-53
2023/01/09 06:24:58;;;;;;;67.47;31.17;;;5.00;99.90;;;;;;5252894;28;20679;-52
2023/01/09 06:27:28;;;;;;;52.97;28.00;;;5.10;99.90;;;;;;5252625;28;20225;-52
2023/01/09 06:29:59;;;;;;;61.03;29.50;;;5.00;99.90;;;;;;5234020;28;20232;-49
2023/01/09 06:32:30;;;;;;;45.53;25.13;;;5.00;99.90;;;;;;5250426;28;20200;-50
2023/01/09 06:35:01;;;;;;;64.97;30.83;;;5.10;99.90;;;;;;5248334;28;20234;-52
2023/01/09 06:37:32;;;;;;;56.73;28.47;;;5.00;99.90;;;;;;5235594;28;20195;-54
2023/01/09 06:40:03;;;;;;;59.90;30.90;;;5.10;99.90;;;;;;5230011;28;20471;-53
2023/01/09 06:42:33;;;;;;;67.20;30.17;;;5.00;99.90;;;;;;5247659;28;20187;-53
2023/01/09 06:45:05;;;;;;;64.00;30.80;;;5.00;99.90;;;;;;5247636;28;20525;-51
2023/01/09 06:47:35;;;;;;;67.90;32.40;;;5.00;99.90;;;;;;5230957;28;20204;-49
2023/01/09 06:50:08;;;;;;;60.07;30.60;;;5.00;99.90;;;;;;5228039;28;20476;-51
2023/01/09 06:52:38;;;;;;;59.10;30.63;;;5.00;99.90;;;;;;5250330;28;20176;-51
2023/01/09 06:55:09;;;;;;;78.00;31.20;;;5.00;99.90;;;;;;5250617;28;20470;-52
2023/01/09 06:57:40;;;;;;;63.97;31.87;;;5.10;99.90;;;;;;5225248;28;20231;-54
2023/01/09 07:00:11;;;;;;;75.13;33.57;;;5.20;99.90;;;;;;5244732;28;20218;-50
2023/01/09 07:02:41;;;;;;;69.80;32.20;;;5.00;99.90;;;;;;5221745;28;20185;-51
2023/01/09 07:05:12;;;;;;;67.03;33.20;;;5.00;99.90;;;;;;5243975;28;20522;-51
2023/01/09 07:07:43;;;;;;;73.80;32.83;;;5.10;99.90;;;;;;5246817;28;20589;-49
2023/01/09 07:10:14;;;;;;;98.63;38.40;;;5.00;99.90;;;;;;5226257;28;20198;-53
2023/01/09 07:12:45;;;;;;;84.73;34.93;;;5.10;99.90;;;;;;5248949;28;20189;-50
2023/01/09 07:15:16;;;;;;;69.63;31.47;;;5.10;99.90;;;;;;5229691;28;21350;-52
2023/01/09 07:17:49;;;;;;;74.67;32.00;;;5.10;99.90;;;;;;5242290;28;20224;-54
2023/01/09 07:20:20;;;;;;;63.63;31.30;;;5.10;99.90;;;;;;5238365;28;20467;-55
2023/01/09 07:22:53;;;;;;;67.50;33.00;;;5.10;99.90;;;;;;5238047;28;20441;-50
2023/01/09 07:25:23;;;;;;;76.90;33.40;;;5.10;99.90;;;;;;5225125;28;20220;-53
2023/01/09 07:27:54;;;;;;;72.30;35.10;;;5.10;99.90;;;;;;5226298;28;20549;-53
2023/01/09 07:30:25;;;;;;;85.23;37.30;;;5.10;99.90;;;;;;5225278;28;20212;-50
2023/01/09 07:32:55;;;;;;;79.23;34.77;;;5.10;99.90;;;;;;5228975;28;20191;-52
2023/01/09 07:35:26;;;;;;;79.43;34.63;;;5.10;99.90;;;;;;5235603;28;20275;-50
2023/01/09 07:37:56;;;;;;;78.30;35.00;;;5.20;99.90;;;;;;5216639;28;20657;-54
2023/01/09 07:40:27;;;;;;;98.97;39.53;;;5.20;99.90;;;;;;5248930;28;20263;-52
2023/01/09 07:42:58;;;;;;;73.80;33.47;;;5.20;99.90;;;;;;5224022;28;20177;-52
2023/01/09 07:45:29;;;;;;;70.03;32.90;;;5.10;99.90;;;;;;5226492;28;20649;-53
2023/01/09 07:47:59;;;;;;;75.37;36.20;;;5.20;99.90;;;;;;5221179;28;20209;-53
2023/01/09 07:50:30;;;;;;;78.77;36.33;;;5.20;99.90;;;;;;5240879;28;20177;-50
2023/01/09 07:53:01;;;;;;;97.73;39.37;;;5.10;99.90;;;;;;5238548;28;20185;-52
2023/01/09 07:55:32;;;;;;;86.27;36.97;;;5.20;99.90;;;;;;5229592;28;20196;-53
2023/01/09 07:58:03;;;;;;;83.50;35.63;;;5.30;99.90;;;;;;5227446;28;20240;-53
2023/01/09 08:00:34;;;;;;;76.80;36.27;;;5.30;99.90;;;;;;5227715;28;20519;-53
2023/01/09 08:03:05;;;;;;;84.50;35.53;;;5.30;99.90;;;;;;5236713;28;21022;-53
2023/01/09 08:05:36;;;;;;;82.10;34.90;;;5.40;99.90;;;;;;5243812;28;20192;-53
2023/01/09 08:08:07;;;;;;;72.73;32.90;;;5.30;99.90;;;;;;5236516;28;20295;-52
2023/01/09 08:10:37;;;;;;;104.67;38.37;;;5.40;99.90;;;;;;5210911;28;20536;-51
2023/01/09 08:13:08;;;;;;;84.03;38.17;;;5.40;99.90;;;;;;5226515;28;20439;-53
2023/01/09 08:15:38;;;;;;;74.50;34.30;;;5.50;99.90;;;;;;5230797;28;20572;-52
2023/01/09 08:18:09;;;;;;;100.67;40.47;;;5.40;99.90;;;;;;5239649;28;20221;-52
2023/01/09 08:20:40;;;;;;;97.73;39.50;;;5.40;99.90;;;;;;5243481;28;20697;-52
2023/01/09 08:23:10;;;;;;;112.30;41.33;;;5.50;99.90;;;;;;5227546;28;21383;-51
2023/01/09 08:25:41;;;;;;;77.37;33.87;;;5.60;99.90;;;;;;5229993;28;20189;-52
2023/01/09 08:28:12;;;;;;;101.63;36.00;;;5.60;99.90;;;;;;5237655;28;20238;-53
2023/01/09 08:30:42;;;;;;;73.03;34.03;;;5.60;99.90;;;;;;5244042;28;20243;-52
2023/01/09 08:33:13;;;;;;;70.03;32.03;;;5.60;99.90;;;;;;5244325;28;20185;-54
2023/01/09 08:35:44;;;;;;;83.80;35.20;;;5.70;99.90;;;;;;5227757;28;20181;-53
2023/01/09 08:38:15;;;;;;;64.80;30.37;;;5.70;99.90;;;;;;5236193;28;20560;-51
2023/01/09 08:40:46;;;;;;;88.17;36.43;;;5.60;99.90;;;;;;5225029;28;20208;-53
2023/01/09 08:49:07;;;;;;;72.87;29.87;;;5.70;99.90;;;;;;5248752;28;20543;-52
2023/01/09 08:51:38;;;;;;;76.20;32.27;;;5.80;99.90;;;;;;5210254;28;20436;-54
2023/01/09 08:54:08;;;;;;;67.90;31.00;;;5.80;99.90;;;;;;5226375;28;20615;-53
2023/01/09 08:56:39;;;;;;;56.00;27.40;;;5.70;99.90;;;;;;5229792;28;20186;-53
2023/01/09 08:59:10;;;;;;;81.83;36.10;;;5.80;99.90;;;;;;5225762;28;20233;-52
2023/01/09 09:01:40;;;;;;;84.03;34.67;;;5.80;99.90;;;;;;5241338;28;20186;-53
2023/01/09 09:04:11;;;;;;;61.07;30.10;;;5.80;99.90;;;;;;5221838;28;20447;-53
2023/01/09 09:06:42;;;;;;;69.00;31.10;;;5.80;99.90;;;;;;5230637;28;20262;-52
2023/01/09 09:09:15;;;;;;;89.67;34.63;;;5.70;99.90;;;;;;5243339;28;20652;-54
2023/01/09 09:11:45;;;;;;;71.40;32.60;;;5.70;99.90;;;;;;5238243;28;20181;-54
2023/01/09 09:17:05;;;;;;;64.60;28.90;;;5.80;99.90;;;;;;5243414;28;20228;-53
2023/01/09 09:19:36;;;;;;;58.13;29.13;;;5.90;99.90;;;;;;5243072;28;20826;-54
2023/01/09 09:22:06;;;;;;;51.47;26.10;;;6.20;99.90;;;;;;5239042;28;20186;-53
2023/01/09 09:24:37;;;;;;;58.67;28.67;;;6.10;99.90;;;;;;5228397;28;20209;-51
2023/01/09 09:27:07;;;;;;;46.03;24.57;;;6.10;99.90;;;;;;5228994;28;20212;-54
2023/01/09 09:29:38;;;;;;;84.27;33.07;;;6.00;99.90;;;;;;5250138;28;20203;-51
2023/01/09 09:32:09;;;;;;;52.03;24.97;;;6.00;99.90;;;;;;5234724;28;20197;-52
2023/01/09 09:34:39;;;;;;;69.27;30.03;;;6.20;99.90;;;;;;5235329;28;20261;-52
2023/01/09 09:37:10;;;;;;;53.33;27.57;;;6.10;99.90;;;;;;5228783;28;20278;-53
2023/01/09 09:39:40;;;;;;;51.33;25.07;;;6.10;99.90;;;;;;5241170;28;20570;-51
2023/01/09 09:46:11;;;;;;;38.23;23.37;;;6.20;99.90;;;;;;5227221;28;20181;-53
2023/01/09 09:48:56;;;;;;;66.87;27.43;;;6.30;99.90;;;;;;5248336;28;20452;-53
2023/01/09 09:51:40;;;;;;;37.43;21.70;;;6.30;99.90;;;;;;5237901;28;20428;-52
2023/01/09 09:54:18;;;;;;;53.27;26.63;;;6.40;99.90;;;;;;5255323;28;20523;-52
2023/01/09 09:56:52;;;;;;;76.07;26.40;;;6.40;99.90;;;;;;5249304;28;20792;-52
2023/01/09 09:59:32;;;;;;;61.93;25.60;;;6.50;99.90;;;;;;5231340;28;20549;-51
2023/01/09 10:02:08;;;;;;;52.43;24.93;;;6.60;99.90;;;;;;5251239;28;20436;-49
2023/01/09 10:04:44;;;;;;;36.37;21.20;;;6.70;99.90;;;;;;5253727;28;20517;-49
2023/01/09 10:07:29;;;;;;;46.03;22.30;;;6.70;99.90;;;;;;5226706;28;20498;-55
2023/01/09 10:10:03;;;;;;;38.77;19.83;;;6.80;99.90;;;;;;5250158;28;20440;-53
2023/01/09 10:12:54;;;;;;;41.60;22.30;;;6.80;99.90;;;;;;5239675;28;20454;-48
2023/01/09 10:15:37;;;;;;;33.73;19.67;;;6.80;99.90;;;;;;5244916;28;20432;-49
2023/01/09 10:18:31;;;;;;;34.30;18.03;;;6.90;99.90;;;;;;5222618;28;20468;-50
2023/01/09 10:21:25;;;;;;;41.33;20.43;;;7.00;99.90;;;;;;5243022;28;20531;-51
2023/01/09 10:24:21;;;;;;;28.83;17.50;;;7.00;99.90;;;;;;5236136;28;20797;-52
2023/01/09 10:26:53;;;;;;;29.80;16.73;;;7.00;99.90;;;;;;5251634;28;20432;-51
2023/01/09 10:29:48;;;;;;;28.67;18.43;;;7.20;99.90;;;;;;5251645;28;20467;-51
2023/01/09 10:32:37;;;;;;;31.87;15.43;;;7.20;99.90;;;;;;5255241;28;20828;-52
2023/01/09 10:35:35;;;;;;;32.07;17.33;;;7.20;99.90;;;;;;5243006;28;20456;-51
2023/01/09 10:38:08;;;;;;;28.03;14.13;;;7.20;99.90;;;;;;5228369;28;20456;-51
2023/01/09 10:40:45;;;;;;;21.70;14.00;;;7.20;99.90;;;;;;5252816;28;20610;-51
2023/01/09 10:43:45;;;;;;;28.57;15.10;;;7.20;99.90;;;;;;5240946;28;20435;-52
2023/01/09 10:46:42;;;;;;;32.00;15.60;;;7.20;99.90;;;;;;5236896;28;22204;-51
2023/01/09 10:49:16;;;;;;;16.50;12.00;;;7.20;99.90;;;;;;5225948;28;20532;-52
2023/01/09 10:51:49;;;;;;;14.07;11.83;;;7.30;99.90;;;;;;5231842;28;20451;-52
2023/01/09 10:54:22;;;;;;;14.73;10.73;;;7.30;99.90;;;;;;5232372;28;20436;-51
2023/01/09 10:57:01;;;;;;;14.93;11.23;;;7.40;99.90;;;;;;5231804;28;20436;-52
2023/01/09 10:59:32;;;;;;;16.33;11.97;;;7.40;99.90;;;;;;5227248;28;20495;-53
2023/01/09 11:02:02;;;;;;;16.27;11.30;;;7.40;99.90;;;;;;5210880;28;20520;-51
2023/01/09 11:04:36;;;;;;;20.00;11.47;;;7.40;99.90;;;;;;5226082;28;20183;-51
2023/01/09 11:07:23;;;;;;;18.20;12.03;;;7.40;99.90;;;;;;5250262;28;20549;-52
2023/01/09 11:10:01;;;;;;;20.40;12.07;;;7.30;99.90;;;;;;5211103;28;20546;-51
2023/01/09 11:12:33;;;;;;;17.20;11.20;;;7.30;99.90;;;;;;5245008;28;20441;-53
2023/01/09 11:15:19;;;;;;;18.30;11.93;;;7.30;99.90;;;;;;5204902;28;20452;-52
2023/01/09 11:17:50;;;;;;;12.20;10.10;;;7.40;99.90;;;;;;5238275;28;20468;-50
2023/01/09 11:20:28;;;;;;;23.67;14.97;;;7.40;99.90;;;;;;5227435;28;20810;-52
2023/01/09 11:22:59;;;;;;;21.40;11.63;;;7.40;99.90;;;;;;5235249;28;20435;-51
2023/01/09 11:25:30;;;;;;;15.77;9.57;;;7.40;99.90;;;;;;5251125;28;20496;-52
2023/01/09 11:28:00;;;;;;;13.67;9.57;;;7.40;99.90;;;;;;5251318;28;20646;-52
2023/01/09 11:30:35;;;;;;;13.97;10.10;;;7.30;99.90;;;;;;5254817;28;20201;-52
2023/01/09 11:33:21;;;;;;;13.53;8.90;;;7.20;99.90;;;;;;5237183;28;20174;-51
2023/01/09 11:36:05;;;;;;;13.87;9.07;;;7.20;99.90;;;;;;5258666;28;20427;-51
2023/01/09 11:38:57;;;;;;;20.77;12.10;;;7.20;99.90;;;;;;5243848;28;20455;-52
2023/01/09 11:41:33;;;;;;;14.50;10.27;;;7.20;99.90;;;;;;5250212;28;20769;-52
2023/01/09 11:44:04;;;;;;;15.10;9.50;;;7.20;99.90;;;;;;5231324;28;20439;-52
2023/01/09 11:46:41;;;;;;;18.00;11.10;;;7.20;99.90;;;;;;5254927;28;20942;-52
2023/01/09 11:49:12;;;;;;;11.00;9.00;;;7.20;99.90;;;;;;5238119;28;20460;-53
2023/01/09 11:51:43;;;;;;;12.00;9.43;;;7.20;99.90;;;;;;5237547;28;20436;-52
2023/01/09 11:54:26;;;;;;;21.30;8.20;;;7.20;99.90;;;;;;5245798;28;20439;-52
2023/01/09 11:56:56;;;;;;;20.37;9.40;;;7.30;99.90;;;;;;5245076;28;20443;-52
2023/01/09 11:59:29;;;;;;;19.43;11.47;;;7.50;99.90;;;;;;5234954;28;20819;-50
2023/01/09 12:02:00;;;;;;;13.63;9.20;;;7.50;99.90;;;;;;5249762;28;20285;-52
2023/01/09 12:04:49;;;;;;;15.67;10.17;;;7.50;99.90;;;;;;5240631;28;20511;-50
2023/01/09 12:07:19;;;;;;;18.70;10.37;;;7.50;99.90;;;;;;5245574;28;20199;-52
2023/01/09 12:09:59;;;;;;;10.40;8.23;;;7.40;99.90;;;;;;5232760;28;20468;-52
2023/01/09 12:12:36;;;;;;;10.60;6.97;;;7.30;99.90;;;;;;5246826;28;20186;-52
2023/01/09 12:15:18;;;;;;;9.60;6.63;;;7.30;99.90;;;;;;5237472;28;20437;-52
2023/01/09 12:18:03;;;;;;;28.97;15.53;;;7.30;99.90;;;;;;5234816;28;20459;-52
2023/01/09 12:20:52;;;;;;;31.47;14.93;;;7.40;99.90;;;;;;5217024;28;20574;-52
2023/01/09 12:23:32;;;;;;;15.50;9.47;;;7.70;99.90;;;;;;5237654;28;20441;-51
2023/01/09 12:26:30;;;;;;;9.57;7.10;;;7.80;99.90;;;;;;5250824;28;20464;-52
2023/01/09 12:29:28;;;;;;;6.87;6.13;;;7.90;99.90;;;;;;5241631;28;21130;-52
2023/01/09 12:32:07;;;;;;;7.60;6.10;;;7.70;99.90;;;;;;5247960;28;20436;-51
2023/01/09 12:34:44;;;;;;;7.57;4.70;;;7.70;99.90;;;;;;5225403;28;20440;-49
2023/01/09 12:37:21;;;;;;;4.27;3.93;;;7.60;99.90;;;;;;5250791;28;20446;-52
2023/01/09 12:40:13;;;;;;;5.80;4.50;;;7.50;99.90;;;;;;5226985;28;20533;-51
2023/01/09 12:43:34;;;;;;;5.97;4.20;;;7.10;99.90;;;;;;5243358;28;20436;-49
2023/01/09 12:46:23;;;;;;;18.67;9.30;;;7.00;99.90;;;;;;5242770;28;20439;-50
2023/01/09 12:49:26;;;;;;;8.33;6.03;;;6.90;99.90;;;;;;5245666;28;20466;-52
2023/01/09 12:52:26;;;;;;;6.73;3.50;;;6.80;99.90;;;;;;5237233;28;20867;-50
2023/01/09 12:55:19;;;;;;;12.40;4.23;;;6.70;99.90;;;;;;5220656;28;20784;-52
2023/01/09 12:57:53;;;;;;;5.70;4.27;;;6.70;99.90;;;;;;5220643;28;20467;-51
2023/01/09 13:00:34;;;;;;;6.60;4.17;;;6.80;99.90;;;;;;5235333;28;20501;-52
2023/01/09 13:03:24;;;;;;;5.50;4.03;;;6.70;99.90;;;;;;5235372;28;20939;-51
2023/01/09 13:05:56;;;;;;;10.97;5.50;;;6.70;99.90;;;;;;5236442;28;20440;-50
2023/01/09 13:08:34;;;;;;;9.03;4.57;;;6.60;99.90;;;;;;5232702;28;20448;-51
2023/01/09 13:11:33;;;;;;;5.63;5.07;;;6.80;99.90;;;;;;5246412;28;20443;-52
2023/01/09 13:14:34;;;;;;;4.53;4.10;;;6.90;99.90;;;;;;5226147;28;20440;-51
2023/01/09 13:17:10;;;;;;;32.37;12.40;;;7.00;99.90;;;;;;5244747;28;20439;-51
2023/01/09 13:19:41;;;;;;;29.67;13.60;;;7.10;99.90;;;;;;5248954;28;20472;-52
2023/01/09 13:22:14;;;;;;;11.67;5.73;;;7.30;99.90;;;;;;5251046;28;20444;-51
2023/01/09 13:25:03;;;;;;;11.67;3.73;;;7.40;99.90;;;;;;5246586;28;20435;-50
2023/01/09 13:27:39;;;;;;;21.40;5.67;;;7.30;99.90;;;;;;5241934;28;20981;-51
2023/01/09 13:30:10;;;;;;;20.50;7.73;;;7.30;99.90;;;;;;5223831;28;20443;-52
2023/01/09 13:33:17;;;;;;;11.40;5.00;;;7.30;99.90;;;;;;5226255;28;20444;-50
2023/01/09 13:35:53;;;;;;;10.50;7.00;;;7.20;99.90;;;;;;5216594;28;20985;-52